Time;durP1;ratioP1;P1;durP2;ratioP2;P2;SDS_P1;SDS_P2;PMS_P1;PMS_P2;Temp;Humidity;BMP_temperature;BMP_pressure;BME280_temperature;BME280_humidity;BME280_pressure;Samples;Min_cycle;Max_cycle;Signal;HPM_P1;HPM_P2
2021/01/27 00:02:00;;;;;;;37.70;18.53;;;;;;;2.03;89.99;98865.28;5064655;28;20033;-66
2021/01/27 00:04:25;;;;;;;37.07;17.80;;;;;;;1.74;91.33;98867.72;5064280;28;20247;-69
2021/01/27 00:06:51;;;;;;;33.00;16.73;;;;;;;1.75;91.86;98869.38;5064025;28;20407;-69
2021/01/27 00:09:16;;;;;;;32.00;16.43;;;;;;;1.78;91.86;98871.75;5064007;28;20099;-66
2021/01/27 00:11:41;;;;;;;30.87;15.90;;;;;;;1.63;92.46;98873.00;5064352;28;20047;-66
2021/01/27 00:14:07;;;;;;;33.70;16.70;;;;;;;1.63;92.73;98875.63;5064095;28;20043;-66
2021/01/27 00:16:32;;;;;;;37.10;17.90;;;;;;;1.77;92.81;98870.09;5064139;28;20037;-69
2021/01/27 00:18:58;;;;;;;34.80;17.73;;;;;;;1.73;92.09;98872.13;5063980;28;20092;-69
2021/01/27 00:21:23;;;;;;;32.57;16.63;;;;;;;1.80;91.69;98872.44;5064078;28;20028;-69
2021/01/27 00:23:49;;;;;;;30.63;14.97;;;;;;;1.62;92.58;98873.97;5064280;28;20028;-66
2021/01/27 00:26:14;;;;;;;35.20;18.63;;;;;;;1.74;92.29;98875.56;5064141;28;20028;-66
2021/01/27 00:28:39;;;;;;;32.80;17.00;;;;;;;1.63;91.87;98866.00;5063853;28;20331;-66
2021/01/27 00:31:05;;;;;;;34.87;17.20;;;;;;;1.78;92.44;98875.19;5062652;28;20047;-69
2021/01/27 00:33:30;;;;;;;32.83;14.77;;;;;;;1.99;91.25;98877.78;5063664;28;20036;-66
2021/01/27 00:35:56;;;;;;;33.70;16.47;;;;;;;2.01;90.62;98870.66;5063474;28;20092;-69
2021/01/27 00:38:24;;;;;;;34.83;16.77;;;;;;;1.82;91.54;98879.19;5063790;28;20071;-69
2021/01/27 00:40:51;;;;;;;33.23;17.07;;;;;;;1.97;91.34;98873.63;5063490;28;20227;-69
2021/01/27 00:43:16;;;;;;;30.80;16.27;;;;;;;2.01;90.83;98869.81;5063503;28;20037;-69
2021/01/27 00:45:42;;;;;;;31.67;16.30;;;;;;;2.11;89.74;98868.94;5063400;28;20379;-69
2021/01/27 00:48:08;;;;;;;29.80;16.00;;;;;;;1.92;90.85;98874.03;5063380;28;20048;-66
2021/01/27 00:50:34;;;;;;;28.40;15.43;;;;;;;1.76;91.59;98861.44;5063266;28;20037;-66
2021/01/27 00:53:00;;;;;;;24.30;13.67;;;;;;;2.05;90.93;98871.22;5063680;28;20029;-66
2021/01/27 00:55:29;;;;;;;30.43;15.10;;;;;;;2.05;90.46;98864.22;5063290;28;20200;-69
2021/01/27 00:57:55;;;;;;;29.13;15.17;;;;;;;2.03;90.17;98870.50;5062895;28;20092;-66
2021/01/27 01:00:41;;;;;;;30.53;15.33;;;;;;;2.14;90.11;98865.25;5062982;28;20045;-66
2021/01/27 01:03:09;;;;;;;34.57;16.43;;;;;;;2.08;90.02;98863.97;5063208;28;20364;-69
2021/01/27 01:05:40;;;;;;;30.97;15.30;;;;;;;2.10;89.99;98872.50;5063137;28;20035;-69
2021/01/27 01:08:07;;;;;;;30.23;15.70;;;;;;;2.02;90.54;98874.09;5062888;28;20095;-66
2021/01/27 01:10:35;;;;;;;36.63;16.23;;;;;;;2.01;90.69;98867.19;5062999;28;20029;-66
2021/01/27 01:13:03;;;;;;;31.37;16.33;;;;;;;2.03;90.18;98866.13;5063018;28;20064;-69
2021/01/27 01:15:29;;;;;;;37.50;18.80;;;;;;;2.09;89.92;98865.63;5062947;28;20059;-69
2021/01/27 01:17:56;;;;;;;39.80;19.93;;;;;;;2.09;90.16;98857.81;5063364;28;20028;-69
2021/01/27 01:20:22;;;;;;;42.80;20.80;;;;;;;1.92;90.63;98864.41;5062771;28;20040;-69
2021/01/27 01:22:56;;;;;;;42.23;20.27;;;;;;;2.20;90.36;98851.66;5063430;28;20249;-69
2021/01/27 01:25:24;;;;;;;46.97;21.87;;;;;;;2.09;89.59;98849.97;5062886;28;20412;-69
2021/01/27 01:27:50;;;;;;;44.33;21.73;;;;;;;2.28;88.68;98841.38;5062705;28;20025;-69
2021/01/27 01:30:21;;;;;;;44.73;21.90;;;;;;;2.11;89.63;98840.22;5062743;28;20041;-69
2021/01/27 01:32:47;;;;;;;40.97;20.07;;;;;;;2.15;89.86;98849.44;5063213;28;20257;-69
2021/01/27 01:35:15;;;;;;;35.00;17.57;;;;;;;2.15;89.43;98843.38;5062709;28;20040;-66
2021/01/27 01:37:42;;;;;;;37.13;18.93;;;;;;;2.16;89.30;98845.03;5062530;28;20092;-65
2021/01/27 01:40:13;;;;;;;41.13;19.23;;;;;;;2.18;89.48;98850.97;5062544;28;20037;-66
2021/01/27 01:42:39;;;;;;;43.93;21.70;;;;;;;2.01;89.95;98843.69;5063054;28;20021;-69
2021/01/27 01:45:40;;;;;;;46.83;22.10;;;;;;;2.16;89.47;98845.03;5062568;28;20078;-68
2021/01/27 01:48:38;;;;;;;52.33;24.83;;;;;;;2.01;90.93;98849.75;5054470;28;20086;-65
2021/01/27 01:51:39;;;;;;;45.87;21.87;;;;;;;1.98;90.64;98849.19;5058358;28;20061;-66
2021/01/27 01:54:17;;;;;;;38.93;18.47;;;;;;;2.05;90.53;98845.09;5049661;28;20053;-65
2021/01/27 01:56:49;;;;;;;37.47;18.00;;;;;;;2.09;90.38;98838.69;5062847;28;20207;-65
2021/01/27 01:59:15;;;;;;;39.67;18.83;;;;;;;2.08;89.78;98830.03;5062493;28;20044;-65
2021/01/27 02:01:44;;;;;;;39.37;17.93;;;;;;;2.08;90.10;98832.63;5062535;28;20044;-68
2021/01/27 02:04:10;;;;;;;34.10;16.93;;;;;;;2.13;89.53;98827.84;5062723;28;20029;-68
2021/01/27 02:06:35;;;;;;;35.23;17.03;;;;;;;2.20;89.00;98836.81;5062214;28;20115;-66
2021/01/27 02:09:04;;;;;;;30.30;15.27;;;;;;;2.23;88.19;98840.94;5063664;28;20092;-65
2021/01/27 02:11:51;;;;;;;33.57;15.73;;;;;;;2.43;87.84;98839.22;5066720;28;20032;-66
2021/01/27 02:14:58;;;;;;;36.07;15.30;;;;;;;2.19;88.40;98814.28;5066554;28;20036;-65
2021/01/27 02:17:23;;;;;;;31.63;15.70;;;;;;;2.26;88.46;98803.28;5066399;28;20187;-69
2021/01/27 02:19:51;;;;;;;31.70;15.83;;;;;;;2.35;88.03;98808.56;5066221;28;20040;-68
2021/01/27 02:22:32;;;;;;;28.23;13.07;;;;;;;2.26;88.44;98811.13;5066582;28;20045;-66
2021/01/27 02:25:18;;;;;;;25.00;13.87;;;;;;;2.16;88.66;98808.47;5066208;28;20037;-69
2021/01/27 02:27:49;;;;;;;25.47;13.23;;;;;;;2.04;89.11;98815.56;5066610;28;20041;-68
2021/01/27 02:30:14;;;;;;;23.87;11.97;;;;;;;2.09;89.15;98826.47;5066029;28;20036;-68
2021/01/27 02:33:04;;;;;;;25.53;12.57;;;;;;;2.13;89.00;98829.63;5066472;28;20071;-66
2021/01/27 02:35:46;;;;;;;26.97;13.50;;;;;;;2.05;89.51;98838.09;5065810;28;20090;-68
2021/01/27 02:38:26;;;;;;;26.23;13.33;;;;;;;2.18;88.77;98835.28;5065765;28;20044;-65
2021/01/27 02:40:51;;;;;;;23.43;12.37;;;;;;;2.22;88.11;98826.25;5066093;28;20048;-66
2021/01/27 02:43:16;;;;;;;31.50;14.70;;;;;;;2.19;88.21;98826.50;5066070;28;20033;-68
2021/01/27 02:45:51;;;;;;;22.37;12.87;;;;;;;2.10;88.81;98827.28;5065959;28;20100;-69
2021/01/27 02:48:24;;;;;;;19.97;10.47;;;;;;;2.00;89.17;98819.38;5065771;28;20287;-65
2021/01/27 02:50:59;;;;;;;20.57;11.13;;;;;;;2.03;89.58;98821.72;5065685;28;20033;-66
2021/01/27 02:53:29;;;;;;;25.13;12.10;;;;;;;2.14;89.12;98826.06;5065666;28;20037;-67
2021/01/27 02:56:12;;;;;;;22.30;11.20;;;;;;;2.13;89.56;98830.47;5065699;28;20218;-69
2021/01/27 02:59:02;;;;;;;20.67;11.07;;;;;;;2.04;89.58;98833.00;5065628;28;20100;-69
2021/01/27 03:01:41;;;;;;;19.60;9.97;;;;;;;2.11;88.41;98853.28;5065231;28;20064;-69
2021/01/27 03:04:16;;;;;;;20.50;10.70;;;;;;;2.19;88.47;98852.63;5065388;28;20032;-65
2021/01/27 03:06:42;;;;;;;20.20;11.17;;;;;;;2.26;88.61;98848.53;5063922;28;20237;-65
2021/01/27 03:09:16;;;;;;;19.20;10.43;;;;;;;2.32;87.44;98848.00;5065553;28;20330;-68
2021/01/27 03:11:42;;;;;;;17.63;9.43;;;;;;;2.18;88.74;98846.56;5065553;28;20033;-68
2021/01/27 03:14:09;;;;;;;17.73;9.93;;;;;;;2.12;88.77;98854.94;5065250;28;20032;-65
2021/01/27 03:16:46;;;;;;;17.77;9.13;;;;;;;2.27;88.44;98860.63;5065291;28;20063;-65
2021/01/27 03:19:25;;;;;;;17.93;10.27;;;;;;;2.17;89.26;98863.19;5065205;28;20036;-65
2021/01/27 03:21:59;;;;;;;19.50;9.87;;;;;;;2.12;89.19;98861.94;5064320;28;20039;-65
2021/01/27 03:24:29;;;;;;;24.37;11.03;;;;;;;2.16;88.77;98881.59;5065102;28;20025;-66
2021/01/27 03:26:58;;;;;;;20.80;11.00;;;;;;;2.11;89.46;98862.88;5065467;28;20048;-65
2021/01/27 03:29:31;;;;;;;23.17;10.90;;;;;;;2.13;89.50;98863.59;5064888;28;20092;-65
2021/01/27 03:32:01;;;;;;;18.43;10.00;;;;;;;2.17;89.42;98870.19;5065246;28;20033;-69
2021/01/27 03:34:38;;;;;;;21.07;11.30;;;;;;;2.24;89.12;98882.63;5064917;28;20029;-69
2021/01/27 03:37:11;;;;;;;38.73;14.53;;;;;;;2.30;88.26;98870.81;5065199;28;20245;-65
2021/01/27 03:39:40;;;;;;;27.03;13.63;;;;;;;2.33;88.28;98874.94;5064742;28;20033;-69
2021/01/27 03:42:31;;;;;;;35.73;14.57;;;;;;;2.38;88.01;98862.31;5065031;28;20096;-68
2021/01/27 03:45:03;;;;;;;26.90;13.43;;;;;;;2.36;87.62;98861.63;5064749;28;20029;-65
2021/01/27 03:47:33;;;;;;;27.67;12.27;;;;;;;2.43;86.98;98865.38;5064986;28;20021;-68
2021/01/27 03:50:05;;;;;;;32.07;13.73;;;;;;;2.43;86.79;98866.19;5064523;28;20219;-68
2021/01/27 03:52:38;;;;;;;45.83;15.50;;;;;;;2.53;86.78;98863.59;5063329;28;20021;-65
2021/01/27 03:55:21;;;;;;;36.90;14.30;;;;;;;2.69;85.95;98863.94;5064458;28;20049;-66
2021/01/27 03:58:01;;;;;;;34.00;12.00;;;;;;;2.80;84.80;98855.16;5064968;28;20105;-68
2021/01/27 04:00:29;;;;;;;17.27;9.47;;;;;;;2.68;84.90;98853.59;5064316;28;20037;-69
2021/01/27 04:03:06;;;;;;;22.53;10.80;;;;;;;2.65;84.68;98866.94;5064755;28;20191;-65
2021/01/27 04:05:32;;;;;;;24.30;11.53;;;;;;;2.46;85.12;98873.75;5064138;28;20067;-66
2021/01/27 04:07:57;;;;;;;23.70;10.27;;;;;;;2.40;85.82;98869.06;5064153;28;20056;-68
2021/01/27 04:10:23;;;;;;;24.57;11.33;;;;;;;2.55;85.08;98856.47;5064126;28;20067;-69
2021/01/27 04:12:48;;;;;;;25.80;10.90;;;;;;;2.55;84.74;98851.25;5064601;28;20092;-65
2021/01/27 04:15:14;;;;;;;25.07;11.00;;;;;;;2.50;84.90;98841.19;5064009;28;20092;-69
2021/01/27 04:17:39;;;;;;;21.73;8.80;;;;;;;2.72;84.50;98840.13;5064378;28;20033;-69
2021/01/27 04:20:05;;;;;;;18.00;9.47;;;;;;;2.74;83.44;98837.38;5063884;28;20323;-69
2021/01/27 04:22:31;;;;;;;14.03;7.97;;;;;;;2.61;83.50;98842.03;5064343;28;20025;-66
2021/01/27 04:24:56;;;;;;;14.90;8.60;;;;;;;2.63;83.94;98840.94;5063905;28;20040;-65
2021/01/27 04:27:23;;;;;;;18.03;8.77;;;;;;;2.66;83.66;98832.00;5064213;28;20096;-65
2021/01/27 04:29:49;;;;;;;14.40;7.97;;;;;;;2.61;83.21;98837.63;5063737;28;20033;-68
2021/01/27 04:32:14;;;;;;;25.77;11.87;;;;;;;2.60;83.52;98837.78;5063979;28;20044;-65
2021/01/27 04:34:40;;;;;;;17.07;9.17;;;;;;;2.46;83.96;98826.72;5063757;28;20028;-68
2021/01/27 04:37:05;;;;;;;22.07;10.10;;;;;;;2.47;83.68;98810.09;5062649;28;20024;-65
2021/01/27 04:39:31;;;;;;;27.87;11.90;;;;;;;2.55;83.95;98828.53;5063611;28;20039;-68
2021/01/27 04:41:56;;;;;;;20.97;10.40;;;;;;;2.51;83.22;98831.56;5063773;28;20035;-68
2021/01/27 04:44:22;;;;;;;20.10;9.47;;;;;;;2.53;83.51;98837.47;5063516;28;20041;-69
2021/01/27 04:47:25;;;;;;;16.60;9.00;;;;;;;2.60;82.94;98848.22;5063643;28;20029;-68
2021/01/27 04:49:55;;;;;;;14.87;8.20;;;;;;;2.54;83.32;98850.41;5063397;28;20033;-65
2021/01/27 04:53:06;;;;;;;20.30;9.63;;;;;;;2.49;83.36;98859.59;5063804;28;20028;-69
2021/01/27 04:56:02;;;;;;;20.90;10.93;;;;;;;2.39;83.46;98851.72;5047279;28;20361;-68
2021/01/27 04:58:48;;;;;;;19.80;10.23;;;;;;;2.32;83.56;98858.44;5244175;22;20052;-68
2021/01/27 05:01:19;;;;;;;20.07;10.23;;;;;;;2.46;83.80;98860.69;5063261;28;20088;-68
2021/01/27 05:04:12;;;;;;;17.90;9.80;;;;;;;2.35;83.60;98859.97;5063362;28;20048;-66
2021/01/27 05:06:44;;;;;;;17.83;8.80;;;;;;;2.39;83.93;98872.63;5063170;28;20069;-66
2021/01/27 05:09:39;;;;;;;16.97;8.63;;;;;;;2.26;83.73;98882.47;5063344;28;20218;-69
2021/01/27 05:12:07;;;;;;;17.23;8.90;;;;;;;2.43;83.73;98886.25;5063141;28;20101;-69
2021/01/27 05:14:34;;;;;;;14.63;8.03;;;;;;;2.55;83.17;98895.66;5063244;28;20036;-66
2021/01/27 05:17:05;;;;;;;14.73;8.13;;;;;;;2.54;83.44;98901.84;5063012;28;20037;-69
2021/01/27 05:19:31;;;;;;;13.83;8.00;;;;;;;2.43;83.69;98909.78;5063215;28;20257;-65
2021/01/27 05:21:57;;;;;;;17.13;8.37;;;;;;;2.56;83.28;98905.16;5062962;28;20041;-68
2021/01/27 05:24:23;;;;;;;15.20;8.13;;;;;;;2.38;84.07;98880.59;5063146;28;20028;-66
2021/01/27 05:27:03;;;;;;;14.47;8.13;;;;;;;2.56;83.76;98865.97;5063246;28;20405;-66
2021/01/27 05:29:35;;;;;;;16.23;8.60;;;;;;;2.40;84.13;98852.56;5062506;28;20037;-66
2021/01/27 05:32:09;;;;;;;17.83;8.40;;;;;;;2.50;83.63;98869.09;5062901;28;20025;-69
2021/01/27 05:34:39;;;;;;;18.30;9.40;;;;;;;2.60;83.20;98869.13;5063060;28;20087;-66
2021/01/27 05:37:15;;;;;;;18.60;10.00;;;;;;;2.55;83.46;98867.75;5062792;28;20068;-65
2021/01/27 05:39:44;;;;;;;20.43;10.40;;;;;;;2.51;83.59;98871.59;5062449;28;20338;-69
2021/01/27 05:42:20;;;;;;;18.47;10.80;;;;;;;2.67;83.34;98878.91;5062778;28;20084;-66
2021/01/27 05:44:46;;;;;;;20.13;11.43;;;;;;;2.72;82.29;98879.34;5062475;28;20060;-66
2021/01/27 05:47:42;;;;;;;18.23;9.70;;;;;;;2.84;81.74;98880.88;5062596;28;20033;-66
2021/01/27 05:50:32;;;;;;;17.47;8.80;;;;;;;2.76;82.08;98878.13;5062582;28;20045;-68
2021/01/27 05:53:19;;;;;;;16.73;8.73;;;;;;;2.67;82.45;98873.69;5062653;28;20047;-69
2021/01/27 05:56:15;;;;;;;16.73;8.77;;;;;;;2.68;82.49;98866.69;5062567;28;20233;-69
2021/01/27 05:59:06;;;;;;;19.90;9.53;;;;;;;2.65;82.33;98857.31;5058698;28;20334;-66
2021/01/27 06:01:39;;;;;;;25.40;11.63;;;;;;;2.76;81.69;98861.59;5062402;28;20033;-65
2021/01/27 06:04:10;;;;;;;33.90;14.90;;;;;;;2.79;81.31;98863.97;5062847;28;20087;-69
2021/01/27 06:06:37;;;;;;;31.27;13.63;;;;;;;2.86;81.02;98862.47;5062763;28;20338;-65
2021/01/27 06:09:05;;;;;;;32.03;15.57;;;;;;;2.72;81.00;98865.44;5061149;28;20302;-65
2021/01/27 06:11:31;;;;;;;30.43;13.97;;;;;;;2.76;81.08;98864.22;5062729;28;20218;-69
2021/01/27 06:14:10;;;;;;;27.63;12.60;;;;;;;2.80;80.90;98848.13;5062547;28;20043;-69
2021/01/27 06:16:43;;;;;;;28.07;12.20;;;;;;;2.97;80.67;98854.50;5062402;28;20032;-69
2021/01/27 06:19:17;;;;;;;25.08;11.93;;;;;;;2.81;80.12;98844.56;5062600;28;20040;-69
2021/01/27 06:22:14;;;;;;;20.27;10.00;;;;;;;2.88;80.08;98827.38;5062229;28;20048;-65
2021/01/27 06:25:05;;;;;;;29.03;12.43;;;;;;;2.76;80.28;98831.06;5062627;28;20259;-68
2021/01/27 06:27:45;;;;;;;29.70;12.03;;;;;;;2.72;80.15;98818.41;5062149;28;20078;-66
2021/01/27 06:30:36;;;;;;;27.63;11.80;;;;;;;2.79;80.31;98820.34;5062247;28;20041;-65
2021/01/27 06:33:25;;;;;;;43.77;15.83;;;;;;;2.70;80.47;98808.06;5062228;28;20096;-69
2021/01/27 06:36:18;;;;;;;39.77;16.80;;;;;;;2.65;80.07;98810.28;5062179;28;20086;-69
2021/01/27 06:39:04;;;;;;;32.13;14.77;;;;;;;2.69;80.19;98808.22;5062241;28;20041;-66
2021/01/27 06:41:38;;;;;;;26.77;12.87;;;;;;;2.70;80.44;98805.47;5062085;28;20234;-69
2021/01/27 06:44:27;;;;;;;27.55;13.75;;;;;;;2.59;80.44;98799.53;5062317;28;20041;-65
2021/01/27 06:47:02;;;;;;;28.77;13.40;;;;;;;2.62;80.69;98810.53;5062091;28;20029;-69
2021/01/27 06:49:51;;;;;;;27.93;13.00;;;;;;;2.68;80.64;98809.19;5062210;28;20087;-65
2021/01/27 06:52:38;;;;;;;33.13;15.00;;;;;;;2.54;80.69;98792.91;5062119;28;20033;-69
2021/01/27 06:55:39;;;;;;;32.23;13.97;;;;;;;2.80;80.43;98815.94;5062090;28;20275;-69
2021/01/27 06:58:39;;;;;;;34.13;15.13;;;;;;;2.67;80.27;98826.66;5003960;28;20048;-66
2021/01/27 07:01:42;;;;;;;28.87;13.10;;;;;;;2.93;79.77;98831.38;5065511;28;20039;-69
2021/01/27 07:04:44;;;;;;;26.10;11.43;;;;;;;2.85;79.77;98829.44;5065760;28;20041;-66
2021/01/27 07:07:34;;;;;;;21.50;10.67;;;;;;;2.78;79.60;98833.53;5066089;28;20029;-65
2021/01/27 07:10:27;;;;;;;26.80;11.27;;;;;;;2.65;80.45;98839.03;5065237;28;20331;-69
2021/01/27 07:13:19;;;;;;;27.57;11.57;;;;;;;2.67;80.30;98842.31;5065337;28;20017;-65
2021/01/27 07:16:13;;;;;;;27.63;11.33;;;;;;;2.49;80.09;98839.53;5065270;28;20306;-69
2021/01/27 07:19:06;;;;;;;32.93;12.20;;;;;;;2.66;80.55;98850.31;5061669;28;20234;-65
2021/01/27 07:21:40;;;;;;;26.00;13.10;;;;;;;2.79;79.97;98849.09;5044307;28;20287;-69
2021/01/27 07:24:35;;;;;;;26.52;12.70;;;;;;;2.80;79.69;98839.47;5045319;28;20033;-65
2021/01/27 07:27:10;;;;;;;24.70;12.63;;;;;;;2.77;79.73;98835.34;5010036;28;20106;-66
2021/01/27 07:29:48;;;;;;;27.23;13.60;;;;;;;3.05;79.25;98831.09;5044751;28;20037;-69
2021/01/27 07:32:32;;;;;;;27.07;12.87;;;;;;;2.87;79.00;98838.78;5045017;28;20033;-76
2021/01/27 07:35:11;;;;;;;22.00;9.10;;;;;;;2.94;79.42;98835.63;5044682;28;20228;-71
2021/01/27 07:37:48;;;;;;;26.23;12.93;;;;;;;2.96;79.54;98833.72;5036184;28;20049;-70
2021/01/27 07:40:27;;;;;;;24.93;10.70;;;;;;;2.99;78.70;98830.81;5043445;28;20068;-76
2021/01/27 07:43:21;;;;;;;24.37;10.43;;;;;;;2.91;79.33;98830.69;5044641;28;20037;-76
2021/01/27 07:45:55;;;;;;;23.07;10.77;;;;;;;2.94;79.38;98827.78;5044577;28;20041;-72
2021/01/27 07:48:47;;;;;;;15.63;7.53;;;;;;;2.78;79.49;98817.84;5044732;28;20037;-72
2021/01/27 07:51:21;;;;;;;16.87;7.37;;;;;;;2.79;79.76;98806.44;5044187;28;20037;-71
2021/01/27 07:53:49;;;;;;;;;;;;;;;2.90;79.30;98814.16;5045194;28;20033;-78
2021/01/27 07:56:24;;;;;;;15.47;6.50;;;;;;;2.51;80.07;98810.66;5043155;28;19954;-79
2021/01/27 07:58:56;;;;;;;11.80;5.70;;;;;;;2.64;80.77;98831.31;5043757;28;20076;-70
2021/01/27 08:01:51;;;;;;;15.23;6.47;;;;;;;2.59;80.99;98821.25;5044024;28;20037;-68
2021/01/27 08:04:26;;;;;;;22.37;9.50;;;;;;;2.69;80.91;98832.56;5043366;28;20232;-72
2021/01/27 08:06:54;;;;;;;19.50;8.53;;;;;;;2.72;80.06;98839.31;5043551;28;20032;-68
2021/01/27 08:09:43;;;;;;;25.73;12.40;;;;;;;2.87;80.46;98832.72;5043872;28;20345;-75
2021/01/27 08:12:28;;;;;;;20.43;9.20;;;;;;;3.21;79.70;98841.06;5042817;28;20027;-70
2021/01/27 08:15:11;;;;;;;17.33;9.03;;;;;;;3.12;78.89;98832.22;5030156;28;20108;-78
2021/01/27 08:17:51;;;;;;;21.67;10.03;;;;;;;3.30;78.35;98842.00;5024168;28;20089;-77
2021/01/27 08:20:23;;;;;;;22.30;9.20;;;;;;;3.06;78.59;98840.59;5024049;28;20022;-73
2021/01/27 08:22:52;;;;;;;15.13;7.30;;;;;;;2.86;78.82;98821.44;5024053;28;20029;-77
2021/01/27 08:25:57;;;;;;;12.87;6.67;;;;;;;2.93;78.24;98863.56;5022876;28;20017;-75
2021/01/27 08:28:38;;;;;;;10.20;5.55;;;;;;;2.96;77.94;98873.75;5024141;28;20060;-75
2021/01/27 08:31:09;;;;;;;14.20;6.77;;;;;;;3.01;78.25;98875.97;5024140;28;20041;-71
2021/01/27 08:33:47;;;;;;;12.40;6.23;;;;;;;2.87;77.53;98877.19;5023905;28;20061;-74
2021/01/27 08:36:15;;;;;;;14.00;6.33;;;;;;;3.02;77.41;98875.84;5022748;28;20454;-63
2021/01/27 08:39:09;;;;;;;20.27;9.27;;;;;;;3.10;76.50;98886.44;5023945;28;20030;-63
2021/01/27 08:41:53;;;;;;;20.63;9.27;;;;;;;2.94;77.08;98886.13;5023896;28;20061;-74
2021/01/27 08:44:21;;;;;;;14.13;7.60;;;;;;;2.85;76.50;98892.19;5041162;28;20037;-77
2021/01/27 08:47:16;;;;;;;17.47;7.83;;;;;;;2.84;76.43;98888.72;5043669;28;20029;-63
2021/01/27 08:49:48;;;;;;;12.93;7.20;;;;;;;2.90;76.09;98890.00;5021010;28;20057;-64
2021/01/27 08:52:13;;;;;;;13.77;7.27;;;;;;;3.03;75.20;98915.88;5042308;28;20021;-79
2021/01/27 08:54:39;;;;;;;11.90;6.70;;;;;;;3.03;74.97;98908.88;5043596;28;20108;-72
2021/01/27 08:57:29;;;;;;;12.80;6.77;;;;;;;3.02;75.50;98911.63;5043605;28;20021;-66
2021/01/27 09:00:33;;;;;;;13.00;6.63;;;;;;;3.22;74.46;98915.94;5042898;28;20041;-73
2021/01/27 09:03:04;;;;;;;12.68;6.85;;;;;;;3.08;75.01;98922.38;5043156;28;20092;-74
2021/01/27 09:05:35;;;;;;;11.30;6.53;;;;;;;3.33;74.02;98928.91;5042904;28;20071;-77
2021/01/27 09:08:09;;;;;;;16.03;7.97;;;;;;;3.35;74.04;98923.53;5042991;28;20041;-71
2021/01/27 09:10:38;;;;;;;16.27;7.57;;;;;;;3.29;74.15;98922.28;5043558;28;20202;-74
2021/01/27 09:13:26;;;;;;;15.50;7.20;;;;;;;3.38;74.06;98923.28;5043037;28;20076;-70
2021/01/27 09:16:00;;;;;;;12.97;6.70;;;;;;;3.42;72.97;98915.00;5041686;28;20067;-69
2021/01/27 09:18:26;;;;;;;13.23;6.95;;;;;;;2.98;73.66;98873.63;5042390;28;20048;-75
2021/01/27 09:20:52;;;;;;;13.43;6.80;;;;;;;3.34;73.36;98924.50;5042667;28;20234;-73
2021/01/27 09:23:20;;;;;;;16.13;6.83;;;;;;;3.33;73.73;98917.63;5042884;28;20037;-75
2021/01/27 09:25:49;;;;;;;9.97;6.00;;;;;;;3.25;73.22;98891.31;5041443;28;20200;-79
2021/01/27 09:28:25;;;;;;;14.93;7.23;;;;;;;3.46;72.55;98920.78;5042749;28;20076;-79
2021/01/27 09:30:52;;;;;;;17.40;7.67;;;;;;;3.44;72.69;98917.50;5042779;28;20029;-78
2021/01/27 09:33:29;;;;;;;14.20;8.13;;;;;;;3.61;73.30;98923.81;5042793;28;20060;-75
2021/01/27 09:36:08;;;;;;;13.27;7.60;;;;;;;3.66;72.42;98917.22;5042630;28;20071;-81
2021/01/27 09:38:34;;;;;;;14.40;7.87;;;;;;;3.30;72.61;98878.63;5042735;28;20037;-77
2021/01/27 09:41:05;;;;;;;20.27;9.67;;;;;;;3.42;73.14;98919.41;5042586;28;20041;-79
2021/01/27 09:43:35;;;;;;;18.40;9.47;;;;;;;3.70;73.57;98926.44;5041276;28;20341;-74
2021/01/27 09:46:21;;;;;;;21.13;11.00;;;;;;;3.74;73.09;98927.81;5042543;28;20101;-77
2021/01/27 09:48:48;;;;;;;24.17;11.63;;;;;;;3.95;72.29;98922.41;5042788;28;20326;-80
2021/01/27 09:51:16;;;;;;;18.97;8.60;;;;;;;4.15;70.63;98925.84;5041410;28;20064;-78
2021/01/27 09:53:44;;;;;;;14.63;8.23;;;;;;;4.04;71.32;98926.81;5042587;28;20125;-65
2021/01/27 09:56:13;;;;;;;15.90;8.67;;;;;;;4.01;71.11;98919.25;5042348;28;20041;-74
2021/01/27 09:58:40;;;;;;;20.17;9.53;;;;;;;4.18;70.30;98924.75;5042110;28;20052;-76
2021/01/27 10:01:17;;;;;;;16.83;9.53;;;;;;;4.08;69.94;98940.47;5042326;28;20246;-69
2021/01/27 10:03:45;;;;;;;16.77;9.03;;;;;;;4.13;69.66;98940.88;5042447;28;20315;-71
2021/01/27 10:06:28;;;;;;;14.60;8.23;;;;;;;4.20;69.81;98944.59;5042278;28;20104;-76
2021/01/27 10:08:57;;;;;;;15.10;8.20;;;;;;;4.16;69.56;98943.22;5042360;28;20303;-72
2021/01/27 10:11:31;;;;;;;19.97;8.90;;;;;;;4.05;69.67;98940.75;5042388;28;20037;-65
2021/01/27 10:13:59;;;;;;;17.70;8.70;;;;;;;4.05;69.88;98941.56;5042505;28;20261;-59
2021/01/27 10:16:25;;;;;;;15.93;8.70;;;;;;;4.07;69.19;98934.41;5042513;28;20306;-71
2021/01/27 10:19:01;;;;;;;25.23;10.60;;;;;;;4.26;68.89;98937.97;5042396;28;20038;-72
2021/01/27 10:21:27;;;;;;;18.00;9.73;;;;;;;4.12;69.29;98926.13;5042017;28;20076;-67
2021/01/27 10:23:52;;;;;;;17.87;9.13;;;;;;;4.18;70.14;98940.47;5042343;28;20041;-64
2021/01/27 10:26:23;;;;;;;19.07;9.53;;;;;;;4.01;69.17;98932.34;5042253;28;20249;-66
2021/01/27 10:29:09;;;;;;;17.53;8.67;;;;;;;4.01;69.93;98940.19;5042308;28;20207;-66
2021/01/27 10:31:36;;;;;;;17.73;8.30;;;;;;;4.06;68.98;98937.16;5034526;28;20048;-66
2021/01/27 10:34:02;;;;;;;16.80;8.03;;;;;;;4.01;69.43;98924.47;5046220;28;20033;-66
2021/01/27 10:36:39;;;;;;;19.47;8.77;;;;;;;4.15;69.11;98931.91;5045874;28;20048;-67
2021/01/27 10:39:27;;;;;;;19.23;9.80;;;;;;;4.06;69.69;98929.31;5035019;28;20034;-65
2021/01/27 10:42:04;;;;;;;21.50;9.10;;;;;;;3.98;68.90;98918.69;5026244;28;20108;-67
2021/01/27 10:44:32;;;;;;;17.00;8.87;;;;;;;4.01;69.52;98908.75;5043432;28;20041;-67
2021/01/27 10:47:00;;;;;;;22.07;10.17;;;;;;;4.15;69.65;98910.94;5045733;28;20265;-67
2021/01/27 10:49:27;;;;;;;15.67;8.73;;;;;;;4.01;69.04;98906.16;5045828;28;20299;-66
2021/01/27 10:51:53;;;;;;;19.30;9.00;;;;;;;4.00;69.07;98898.44;5045985;28;20048;-66
2021/01/27 10:54:22;;;;;;;20.47;10.03;;;;;;;3.96;69.36;98904.91;5044362;28;20324;-66
2021/01/27 10:56:54;;;;;;;20.10;9.37;;;;;;;3.93;68.36;98902.56;5045783;28;20035;-66
2021/01/27 10:59:21;;;;;;;20.97;8.83;;;;;;;4.03;70.01;98892.91;5045137;28;20038;-66
2021/01/27 11:01:47;;;;;;;18.73;9.37;;;;;;;4.02;68.82;98886.00;5045604;28;20036;-78
2021/01/27 11:04:12;;;;;;;18.40;9.17;;;;;;;3.99;68.91;98897.59;5045454;28;20304;-75
2021/01/27 11:06:43;;;;;;;17.23;8.73;;;;;;;3.91;68.59;98891.41;5045278;28;20021;-71
2021/01/27 11:09:09;;;;;;;15.77;8.97;;;;;;;3.87;68.58;98890.88;5041493;28;20093;-72
2021/01/27 11:11:36;;;;;;;17.43;9.23;;;;;;;3.92;68.13;98895.69;5025132;28;20064;-68
2021/01/27 11:14:03;;;;;;;19.90;9.53;;;;;;;3.95;67.14;98898.84;5041006;28;20029;-67
2021/01/27 11:16:28;;;;;;;19.20;8.93;;;;;;;3.79;68.69;98885.50;5045282;28;20022;-74
2021/01/27 11:18:54;;;;;;;17.47;9.00;;;;;;;3.65;68.46;98894.63;5043952;28;20071;-71
2021/01/27 11:21:19;;;;;;;17.33;8.60;;;;;;;3.70;69.69;98874.06;5044673;28;20246;-73
2021/01/27 11:23:45;;;;;;;16.07;8.23;;;;;;;3.87;68.42;98901.34;5045076;28;20049;-73
2021/01/27 11:26:10;;;;;;;14.60;8.10;;;;;;;3.70;68.01;98896.81;5045555;28;20083;-69
2021/01/27 11:28:36;;;;;;;17.93;9.27;;;;;;;3.77;68.61;98897.91;5045048;28;20029;-65
2021/01/27 11:31:03;;;;;;;21.30;10.30;;;;;;;3.68;68.06;98894.34;5044750;28;20033;-65
2021/01/27 11:33:28;;;;;;;20.63;9.70;;;;;;;3.60;68.11;98896.81;5044949;28;20033;-77
2021/01/27 11:35:54;;;;;;;16.67;8.57;;;;;;;3.51;68.38;98888.00;5043526;28;20028;-76
2021/01/27 11:38:20;;;;;;;15.23;8.50;;;;;;;3.47;67.78;98906.75;5044779;28;20319;-77
2021/01/27 11:40:46;;;;;;;16.97;9.13;;;;;;;3.60;68.90;98901.22;5044458;28;20311;-69
2021/01/27 11:43:11;;;;;;;15.20;8.03;;;;;;;3.61;68.25;98908.13;5035856;28;20041;-69
2021/01/27 11:45:37;;;;;;;18.50;9.90;;;;;;;3.67;68.70;98913.63;5024674;28;20032;-78
2021/01/27 11:48:02;;;;;;;16.93;8.17;;;;;;;3.63;68.38;98916.66;5024762;28;20046;-75
2021/01/27 11:50:29;;;;;;;17.80;8.67;;;;;;;3.22;68.62;98850.56;5024675;28;20044;-70
2021/01/27 11:52:55;;;;;;;15.60;8.53;;;;;;;3.44;68.71;98912.25;5024516;28;20053;-75
2021/01/27 11:55:22;;;;;;;19.57;9.90;;;;;;;3.47;68.96;98919.81;5024621;28;20068;-79
2021/01/27 11:57:48;;;;;;;17.30;8.53;;;;;;;3.44;68.42;98917.50;5024189;28;20235;-65
2021/01/27 12:00:16;;;;;;;17.13;8.43;;;;;;;3.48;68.70;98898.75;5024675;28;20022;-64
2021/01/27 12:02:42;;;;;;;16.43;8.77;;;;;;;3.56;68.30;98902.47;5022994;28;20092;-65